Current | Forecast
Updated: 5:00 PM JST on April 27, 2017
Observed at Niigata Airport, Japan
Temperature 57°F
Humidity 41%
Dew Point 34°F
Wind WSW at 15 mph
Pressure 29.71 in (Steady)
Conditions Partly Cloudy
Visibility 6.2 miles
UV 1 out of 16
Clouds (FEW) : 4000 ft
Yesterday's Maximum 59°F
Yesterday's Minimum 52°F approx.
Yesterday's Heating Degree Days 10 approx.
Sunrise4:55 AM JST
Sunset6:33 PM JST
Moon Rise5:35 AM JST
Moon Set7:22 PM JST
Moon PhaseMoon Phase
New Moon
Raw METARMETAR RJSN 270800Z 24013KT 9999 FEW040 SCT/// 14/01 Q1006


Monday
. High: 75° F.
Tuesday
. High: 71° F.
Wednesday
. High: 62° F.
Thursday
. High: 66° F.
Friday
. High: 71° F.
Saturday
. High: 62° F.
Sunday
. High: 64° F.
Monday
. High: 60° F.

Units: English | Metric

Find the Weather for any City, State or Zipcode, or Country:

U.S. State List | Severe Weather | Tropical Storms | Ski Conditions
United States | Canada | Central America | South America | Asia | Europe | Australia | Africa | Islands

Weather Underground

© Copyright 2017
The Weather Company, LLC